Time;durP1;ratioP1;P1;durP2;ratioP2;P2;SDS_P1;SDS_P2;PMS_P1;PMS_P2;Temp;Humidity;BMP_temperature;BMP_pressure;BME280_temperature;BME280_humidity;BME280_pressure;Samples;Min_cycle;Max_cycle;Signal;HPM_P1;HPM_P2
2022/09/16 00:00:16;;;;;;;9.10;2.20;;;;;;;12.07;97.31;101099.59;4875664;29;20041;-89
2022/09/16 00:02:41;;;;;;;5.50;1.80;;;;;;;11.96;98.06;101086.88;4875857;29;20130;-89
2022/09/16 00:05:10;;;;;;;4.95;1.95;;;;;;;12.06;99.50;101097.91;4853773;29;20119;-89
2022/09/16 00:07:35;;;;;;;4.72;2.25;;;;;;;12.07;99.78;101097.88;4875039;29;20502;-89
2022/09/16 00:10:01;;;;;;;7.68;2.47;;;;;;;12.11;99.29;101093.44;4879551;29;20039;-89
2022/09/16 00:12:27;;;;;;;7.03;2.20;;;;;;;12.10;99.90;101084.78;4875673;29;20039;-89
2022/09/16 00:14:53;;;;;;;6.25;2.30;;;;;;;12.17;97.62;101107.13;4863565;29;20033;-89
2022/09/16 00:17:19;;;;;;;7.18;2.90;;;;;;;12.11;99.76;101085.63;4881790;29;20041;-89
2022/09/16 00:19:44;;;;;;;8.40;2.50;;;;;;;12.18;99.97;101090.63;4876168;29;20033;-93
2022/09/16 00:22:10;;;;;;;5.70;2.40;;;;;;;12.12;100.00;101077.81;4881721;29;20037;-92
2022/09/16 00:24:35;;;;;;;6.03;2.30;;;;;;;12.21;100.00;101090.53;4875980;29;20028;-92
2022/09/16 00:27:01;;;;;;;6.18;2.55;;;;;;;12.14;100.00;101072.56;4886602;29;20040;-92
2022/09/16 00:29:26;;;;;;;6.80;2.28;;;;;;;12.12;99.05;101072.59;4864517;29;20049;-92
2022/09/16 00:31:52;;;;;;;6.65;2.30;;;;;;;12.22;98.92;101084.44;4881190;29;20055;-92
2022/09/16 00:34:17;;;;;;;5.85;2.55;;;;;;;12.16;99.30;101084.63;4854558;29;20455;-92
2022/09/16 00:36:43;;;;;;;9.68;2.58;;;;;;;12.20;100.00;101088.00;4875917;29;20025;-92
2022/09/16 00:39:09;;;;;;;5.47;2.50;;;;;;;12.18;100.00;101076.78;4875005;29;20048;-93
2022/09/16 00:41:35;;;;;;;9.27;2.58;;;;;;;12.23;100.00;101087.91;4859615;29;20033;-92
2022/09/16 00:44:06;;;;;;;6.20;2.33;;;;;;;12.18;100.00;101069.84;4884544;29;20364;-93
2022/09/16 00:46:41;;;;;;;9.18;2.60;;;;;;;12.31;100.00;101098.09;4874449;29;20097;-91
2022/09/16 00:49:15;;;;;;;5.53;2.28;;;;;;;12.30;100.00;101086.00;4874187;29;20025;-92
2022/09/16 00:51:43;;;;;;;6.90;2.60;;;;;;;12.31;100.00;101087.69;4864621;29;20052;-92
2022/09/16 00:54:09;;;;;;;7.95;2.47;;;;;;;12.22;98.68;101076.66;4889754;29;20399;-91
2022/09/16 00:56:40;;;;;;;8.68;2.80;;;;;;;12.18;99.57;101076.78;4877409;29;20527;-92
2022/09/16 00:59:30;;;;;;;3.33;2.50;;;;;;;12.21;99.33;101100.94;4854901;29;20107;-91
2022/09/16 01:01:59;;;;;;;4.22;2.38;;;;;;;12.16;99.42;101094.16;4856584;29;20084;-91
2022/09/16 01:04:35;;;;;;;7.22;2.78;;;;;;;12.05;99.75;101070.22;4875760;29;20028;-91
2022/09/16 01:07:00;;;;;;;6.40;2.47;;;;;;;12.02;99.90;101070.28;4877245;29;20036;-91
2022/09/16 01:09:28;;;;;;;7.80;2.60;;;;;;;12.01;99.03;101084.19;4874309;29;20024;-92
2022/09/16 01:11:54;;;;;;;6.13;2.58;;;;;;;11.90;99.51;101065.41;4876364;29;20650;-91
2022/09/16 01:17:20;;;;;;;7.22;2.55;;;;;;;11.86;100.00;101067.22;4877121;29;20040;-91
2022/09/16 01:20:04;;;;;;;8.40;2.83;;;;;;;11.87;100.00;101087.94;4866971;29;20033;-92
2022/09/16 01:22:43;;;;;;;8.88;2.67;;;;;;;11.85;100.00;101084.56;4874770;29;20603;-92
2022/09/16 01:25:09;;;;;;;6.30;2.72;;;;;;;11.84;100.00;101082.00;4878998;29;20353;-91
2022/09/16 01:27:52;;;;;;;9.63;3.08;;;;;;;11.82;100.00;101082.03;4886624;29;20498;-91
2022/09/16 01:30:31;;;;;;;5.50;2.50;;;;;;;11.79;100.00;101078.66;4875966;29;20116;-92
2022/09/16 01:33:19;;;;;;;7.50;3.05;;;;;;;11.76;100.00;101079.59;4884705;29;20491;-91
2022/09/16 01:36:07;;;;;;;7.05;2.60;;;;;;;11.68;100.00;101068.50;4873483;29;20036;-92
2022/09/16 01:38:45;;;;;;;7.40;2.83;;;;;;;11.63;100.00;101079.88;4885047;29;20037;-92
2022/09/16 01:41:32;;;;;;;6.35;2.80;;;;;;;11.56;100.00;101075.72;4863339;29;20467;-92
2022/09/16 01:44:00;;;;;;;5.07;2.72;;;;;;;11.48;100.00;101074.16;4883787;29;20029;-91
2022/09/16 01:46:46;;;;;;;7.43;2.67;;;;;;;11.44;100.00;101080.34;4858784;29;20092;-91
2022/09/16 01:49:14;;;;;;;9.77;2.92;;;;;;;11.41;100.00;101074.34;4874831;29;20033;-92
2022/09/16 01:51:52;;;;;;;8.40;2.65;;;;;;;11.35;100.00;101066.72;4874321;29;20061;-92
2022/09/16 01:54:25;;;;;;;7.88;2.88;;;;;;;11.35;100.00;101071.91;4875044;29;20040;-91
2022/09/16 01:56:57;;;;;;;6.20;2.97;;;;;;;11.32;100.00;101082.38;4875518;29;20032;-91
2022/09/16 01:59:31;;;;;;;6.55;2.90;;;;;;;11.11;100.00;101051.72;4881794;29;20032;-91
2022/09/16 02:01:56;;;;;;;;;;;;;;;11.28;100.00;101089.34;4869035;29;20029;-91
2022/09/16 02:04:32;;;;;;;8.03;2.80;;;;;;;11.17;100.00;101069.72;4881473;29;19927;-92
2022/09/16 02:07:01;;;;;;;8.25;3.15;;;;;;;10.98;100.00;101053.72;4862207;29;20036;-92
2022/09/16 02:09:36;;;;;;;9.35;3.05;;;;;;;10.99;100.00;101053.66;4883931;29;20040;-91
2022/09/16 02:12:07;;;;;;;9.98;3.40;;;;;;;10.98;100.00;101064.97;4871851;29;20033;-91
2022/09/16 02:14:38;;;;;;;12.38;3.40;;;;;;;11.07;100.00;101077.72;4886568;29;20052;-91
2022/09/16 02:17:07;;;;;;;10.02;3.58;;;;;;;11.06;100.00;101067.34;4889064;29;20049;-91
2022/09/16 02:19:48;;;;;;;9.07;3.78;;;;;;;11.20;100.00;101087.81;4869347;29;20037;-92
2022/09/16 02:22:24;;;;;;;8.80;3.45;;;;;;;11.17;100.00;101078.38;4881982;29;20047;-91
2022/09/16 02:24:50;;;;;;;6.95;3.50;;;;;;;11.20;100.00;101082.63;4864413;29;20061;-91
2022/09/16 02:27:20;;;;;;;10.10;3.65;;;;;;;11.11;100.00;101065.53;4897483;29;20028;-91
2022/09/16 02:29:55;;;;;;;9.93;3.78;;;;;;;11.13;100.00;101065.47;4894745;29;20079;-92
2022/09/16 02:32:24;;;;;;;11.43;4.10;;;;;;;11.09;100.00;101069.91;4866293;29;20125;-91
2022/09/16 02:34:51;;;;;;;6.65;3.40;;;;;;;11.14;100.00;101074.97;4878625;29;20032;-92
2022/09/16 02:37:21;;;;;;;11.77;4.00;;;;;;;11.13;100.00;101081.03;4857921;29;20116;-92
2022/09/16 02:39:50;;;;;;;9.30;3.78;;;;;;;11.17;100.00;101077.50;4873532;29;20435;-92
2022/09/16 02:42:16;;;;;;;8.75;3.83;;;;;;;11.10;100.00;101082.00;4873446;29;20040;-93
2022/09/16 02:44:44;;;;;;;7.90;3.88;;;;;;;11.03;100.00;101064.84;4877163;29;20053;-91
2022/09/16 02:47:34;;;;;;;8.07;3.90;;;;;;;10.97;100.00;101054.63;4873417;29;20521;-91
2022/09/16 02:50:32;;;;;;;9.90;3.58;;;;;;;11.09;100.00;101069.91;4874062;29;20063;-92
2022/09/16 02:53:04;;;;;;;8.57;3.78;;;;;;;10.94;100.00;101055.53;4829364;29;20094;-92
2022/09/16 02:55:57;;;;;;;6.93;3.47;;;;;;;11.04;100.00;101058.78;4859171;29;20498;-92
2022/09/16 02:58:23;;;;;;;11.63;3.65;;;;;;;10.96;100.00;101052.91;4861435;29;20044;-93
2022/09/16 03:00:53;;;;;;;10.73;3.75;;;;;;;11.15;100.00;101076.69;4862486;29;20025;-92
2022/09/16 03:03:19;;;;;;;8.88;3.83;;;;;;;11.11;100.00;101056.91;4861362;29;20035;-91
2022/09/16 03:06:03;;;;;;;8.73;3.70;;;;;;;11.23;100.00;101073.03;4882285;29;20060;-92
2022/09/16 03:08:29;;;;;;;9.38;3.72;;;;;;;11.23;100.00;101065.25;4863841;29;20029;-92
2022/09/16 03:10:57;;;;;;;7.68;3.30;;;;;;;11.24;100.00;101059.19;4885822;29;20044;-92
2022/09/16 03:13:38;;;;;;;8.18;3.10;;;;;;;11.23;99.83;101052.28;4890820;29;20033;-92
2022/09/16 03:16:52;;;;;;;8.40;3.13;;;;;;;11.31;100.00;101065.94;4865925;29;20038;-92
2022/09/16 03:19:31;;;;;;;7.38;2.80;;;;;;;11.36;100.00;101063.22;4871147;29;20045;-93
2022/09/16 03:22:08;;;;;;;8.75;2.92;;;;;;;11.38;100.00;101062.31;4864904;29;20167;-91
2022/09/16 03:24:58;;;;;;;6.28;2.50;;;;;;;11.43;100.00;101057.00;4879210;29;20056;-92
2022/09/16 03:27:36;;;;;;;6.47;2.25;;;;;;;11.47;100.00;101062.06;4878704;29;20033;-92
2022/09/16 03:30:09;;;;;;;7.38;2.20;;;;;;;11.47;100.00;101056.03;4878072;29;20049;-92
2022/09/16 03:33:01;;;;;;;3.03;1.80;;;;;;;11.56;100.00;101061.00;4873025;29;20036;-92
2022/09/16 03:35:35;;;;;;;3.38;1.52;;;;;;;11.57;100.00;101062.72;4877755;29;20110;-92
2022/09/16 03:38:02;;;;;;;3.97;1.75;;;;;;;11.49;100.00;101044.72;4882305;29;20029;-92
2022/09/16 03:40:31;;;;;;;3.60;1.50;;;;;;;11.58;100.00;101061.84;4878692;29;20033;-92
2022/09/16 03:43:08;;;;;;;5.25;1.58;;;;;;;11.58;100.00;101060.97;4875193;29;20040;-92
2022/09/16 03:45:34;;;;;;;4.30;1.63;;;;;;;11.60;100.00;101060.03;4885291;29;20021;-92
2022/09/16 03:48:00;;;;;;;5.97;1.73;;;;;;;11.53;100.00;101058.50;4878300;29;20039;-92
2022/09/16 03:50:25;;;;;;;4.60;1.63;;;;;;;11.58;100.00;101069.63;4861093;29;20028;-92
2022/09/16 03:52:56;;;;;;;5.32;1.80;;;;;;;11.55;100.00;101069.69;4877255;29;20037;-92
2022/09/16 03:55:21;;;;;;;5.63;1.83;;;;;;;11.40;100.00;101041.50;4877116;29;20059;-93
2022/09/16 03:57:47;;;;;;;5.05;2.05;;;;;;;11.50;100.00;101061.16;4861199;29;20056;-92
2022/09/16 04:00:14;;;;;;;3.63;1.67;;;;;;;11.44;100.00;101049.19;4873342;29;20098;-91
2022/09/16 04:02:40;;;;;;;7.32;1.70;;;;;;;11.39;100.00;101045.00;4870022;29;20035;-92
2022/09/16 04:05:07;;;;;;;3.72;1.70;;;;;;;11.43;100.00;101051.81;4871369;29;20025;-91
2022/09/16 04:07:36;;;;;;;5.90;1.80;;;;;;;11.40;100.00;101052.72;4859070;29;20025;-92
2022/09/16 04:10:02;;;;;;;6.85;2.05;;;;;;;11.34;100.00;101050.28;4876601;29;20518;-92
2022/09/16 04:12:28;;;;;;;2.92;1.70;;;;;;;11.38;100.00;101054.53;4873552;29;20060;-91
2022/09/16 04:14:53;;;;;;;5.05;1.80;;;;;;;11.39;100.00;101052.78;4880159;29;20447;-92
2022/09/16 04:17:19;;;;;;;4.20;1.63;;;;;;;11.37;100.00;101050.22;4878413;29;20061;-92
2022/09/16 04:19:44;;;;;;;6.07;1.65;;;;;;;11.40;100.00;101057.91;4877009;29;20039;-93
2022/09/16 04:22:10;;;;;;;3.17;1.48;;;;;;;11.44;100.00;101066.50;4876623;29;20112;-91
2022/09/16 04:24:35;;;;;;;4.60;1.50;;;;;;;11.43;100.00;101070.84;4883802;29;20501;-92
2022/09/16 04:27:00;;;;;;;5.72;1.30;;;;;;;11.25;100.00;101047.06;4863661;29;20103;-93
2022/09/16 04:29:26;;;;;;;6.03;1.35;;;;;;;11.30;100.00;101051.25;4887182;29;20052;-91
2022/09/16 04:31:53;;;;;;;3.40;1.20;;;;;;;11.29;100.00;101059.06;4861604;29;20033;-93
2022/09/16 04:34:18;;;;;;;3.72;1.42;;;;;;;11.34;100.00;101073.63;4875111;29;20032;-92
2022/09/16 04:36:44;;;;;;;3.42;1.17;;;;;;;11.24;100.00;101059.19;4859516;29;20043;-91
2022/09/16 04:39:11;;;;;;;2.78;1.02;;;;;;;11.25;100.00;101065.22;4876906;29;20251;-92
2022/09/16 04:41:37;;;;;;;5.90;1.40;;;;;;;11.35;100.00;101071.91;4877442;29;20120;-92
2022/09/16 04:44:03;;;;;;;5.28;1.23;;;;;;;11.28;100.00;101057.34;4868477;29;20040;-92
2022/09/16 04:46:31;;;;;;;2.85;1.30;;;;;;;11.34;100.00;101071.03;4872706;29;20032;-92
2022/09/16 04:48:57;;;;;;;2.45;1.10;;;;;;;11.34;100.00;101062.41;4849601;29;20033;-92
2022/09/16 04:51:26;;;;;;;4.93;1.20;;;;;;;11.33;100.00;101061.53;4876802;29;20043;-93
2022/09/16 04:53:53;;;;;;;4.80;1.15;;;;;;;11.34;100.00;101065.84;4858813;29;20040;-93
2022/09/16 04:56:31;;;;;;;3.75;1.20;;;;;;;11.33;100.00;101050.31;4858775;29;20035;-93
2022/09/16 04:59:02;;;;;;;4.50;1.40;;;;;;;11.27;100.00;101046.13;4859926;29;20036;-92
2022/09/16 05:01:30;;;;;;;4.00;1.27;;;;;;;11.32;100.00;101043.44;4879352;29;20464;-92
2022/09/16 05:03:58;;;;;;;3.90;1.33;;;;;;;11.33;100.00;101045.13;4875190;29;20045;-92
2022/09/16 05:06:27;;;;;;;4.93;1.27;;;;;;;11.24;100.00;101033.25;4879956;29;20058;-92
2022/09/16 05:08:53;;;;;;;5.10;1.40;;;;;;;11.30;100.00;101050.41;4892767;29;20028;-92
2022/09/16 05:11:27;;;;;;;3.58;1.20;;;;;;;11.26;100.00;101035.81;4878502;29;20502;-92
2022/09/16 05:13:54;;;;;;;6.53;1.37;;;;;;;11.34;100.00;101055.47;4876585;29;20550;-93
2022/09/16 05:16:21;;;;;;;4.20;1.17;;;;;;;11.36;100.00;101065.81;4875065;29;20033;-92
2022/09/16 05:18:49;;;;;;;5.28;1.60;;;;;;;11.24;100.00;101043.63;4877340;29;20586;-92
2022/09/16 05:21:19;;;;;;;2.58;1.30;;;;;;;11.27;100.00;101050.47;4875063;29;20044;-92
2022/09/16 05:23:45;;;;;;;4.82;1.30;;;;;;;11.30;100.00;101056.44;4863119;29;20638;-92
2022/09/16 05:26:14;;;;;;;4.13;1.40;;;;;;;11.25;100.00;101052.25;4888955;29;20089;-93
2022/09/16 05:28:40;;;;;;;5.32;1.40;;;;;;;11.26;100.00;101053.97;4851212;29;20061;-93
2022/09/16 05:31:13;;;;;;;3.75;1.30;;;;;;;11.35;100.00;101077.09;4879337;29;20036;-91
2022/09/16 05:33:40;;;;;;;2.92;1.30;;;;;;;11.28;100.00;101049.56;4867129;29;20418;-91
2022/09/16 05:36:08;;;;;;;5.50;1.40;;;;;;;11.23;100.00;101026.34;4871822;29;20123;-92
2022/09/16 05:38:34;;;;;;;4.38;1.20;;;;;;;11.37;100.00;101058.00;4875525;29;20479;-92
2022/09/16 05:41:03;;;;;;;5.07;1.20;;;;;;;11.37;100.00;101060.59;4876338;29;20439;-94
2022/09/16 05:43:29;;;;;;;6.18;1.40;;;;;;;11.31;100.00;101049.50;4864217;29;20016;-92
2022/09/16 05:45:55;;;;;;;3.42;1.38;;;;;;;11.27;100.00;101038.34;4876492;29;20037;-93
2022/09/16 05:48:22;;;;;;;7.07;1.30;;;;;;;11.39;100.00;101066.63;4883168;29;20036;-92
2022/09/16 05:51:02;;;;;;;2.40;1.20;;;;;;;11.43;100.00;101072.59;4872487;29;20648;-92
2022/09/16 05:53:29;;;;;;;4.32;1.23;;;;;;;11.41;100.00;101072.59;4858557;29;20036;-93
2022/09/16 05:55:57;;;;;;;3.60;1.30;;;;;;;11.47;100.00;101079.38;4875078;29;20043;-93
2022/09/16 05:58:24;;;;;;;5.53;1.40;;;;;;;11.31;100.00;101060.75;4875197;29;20088;-91
2022/09/16 06:01:06;;;;;;;3.55;1.25;;;;;;;11.24;100.00;101061.78;4869616;29;20651;-92
2022/09/16 06:03:42;;;;;;;4.68;1.40;;;;;;;11.36;100.00;101099.56;4862346;29;20033;-93
2022/09/16 06:06:44;;;;;;;3.00;1.00;;;;;;;11.20;100.00;101072.25;4878835;29;20034;-92
2022/09/16 06:09:15;;;;;;;2.15;0.90;;;;;;;11.37;100.00;101096.09;4874225;29;20147;-93
2022/09/16 06:11:46;;;;;;;1.63;0.88;;;;;;;11.41;100.00;101089.91;4877324;29;20025;-93
2022/09/16 06:14:21;;;;;;;3.47;0.90;;;;;;;11.39;100.00;101087.38;4875933;29;20029;-92
2022/09/16 06:17:04;;;;;;;3.70;1.13;;;;;;;11.44;100.00;101103.69;4872481;29;20109;-93
2022/09/16 06:19:33;;;;;;;3.25;1.02;;;;;;;11.51;100.00;101111.34;4858608;29;20507;-92
2022/09/16 06:22:01;;;;;;;2.30;0.95;;;;;;;11.44;100.00;101079.47;4873923;29;20039;-92
2022/09/16 06:24:29;;;;;;;3.88;1.10;;;;;;;11.43;100.00;101075.19;4884231;29;20033;-93
2022/09/16 06:26:57;;;;;;;4.63;1.00;;;;;;;11.43;100.00;101069.97;4868609;29;20116;-93
2022/09/16 06:29:26;;;;;;;4.60;1.20;;;;;;;11.37;100.00;101067.53;4873596;29;20060;-93
2022/09/16 06:31:58;;;;;;;4.03;1.20;;;;;;;11.43;100.00;101085.56;4878635;29;20041;-92
2022/09/16 06:34:26;;;;;;;5.15;1.52;;;;;;;11.55;100.00;101110.38;4888791;29;20032;-94
2022/09/16 06:36:57;;;;;;;3.92;1.60;;;;;;;11.43;100.00;101078.63;4876152;29;20025;-93
2022/09/16 06:39:32;;;;;;;6.40;1.90;;;;;;;11.60;100.00;101104.16;4878539;29;20044;-93
2022/09/16 06:42:00;;;;;;;7.63;2.08;;;;;;;11.44;100.00;101080.34;4866362;29;20024;-93
2022/09/16 06:44:26;;;;;;;6.05;2.10;;;;;;;11.52;100.00;101092.28;4879972;29;20120;-93
2022/09/16 06:46:54;;;;;;;5.90;2.13;;;;;;;11.75;100.00;101116.84;4873322;29;20119;-93
2022/09/16 06:49:41;;;;;;;5.97;2.30;;;;;;;11.76;100.00;101094.31;4881579;29;20076;-94
2022/09/16 06:52:12;;;;;;;6.22;2.13;;;;;;;11.78;100.00;101087.34;4879288;29;20039;-93
2022/09/16 06:54:42;;;;;;;7.45;2.30;;;;;;;11.85;100.00;101105.34;4877787;29;20036;-93
2022/09/16 06:57:11;;;;;;;8.38;2.30;;;;;;;11.71;100.00;101089.22;4878162;29;20412;-94
2022/09/16 06:59:39;;;;;;;8.73;2.75;;;;;;;11.78;100.00;101110.72;4878055;29;20029;-93
2022/09/16 07:02:20;;;;;;;6.47;2.00;;;;;;;11.58;100.00;101080.00;4889863;29;20045;-93
2022/09/16 07:04:57;;;;;;;6.45;2.10;;;;;;;11.51;100.00;101080.19;4880784;29;20517;-92
2022/09/16 07:07:32;;;;;;;5.68;2.20;;;;;;;11.64;100.00;101099.78;4866961;29;20052;-94
2022/09/16 07:10:01;;;;;;;5.07;1.95;;;;;;;11.56;100.00;101088.72;4865980;29;20487;-94
2022/09/16 07:12:36;;;;;;;4.85;1.88;;;;;;;11.60;100.00;101103.34;4885225;29;20024;-93
2022/09/16 07:15:02;;;;;;;4.80;1.92;;;;;;;11.59;100.00;101099.03;4889731;29;20040;-95
2022/09/16 07:17:56;;;;;;;8.75;2.28;;;;;;;11.50;100.00;101079.34;4878583;29;20419;-93
2022/09/16 07:20:22;;;;;;;5.80;1.92;;;;;;;11.65;100.00;101106.69;4864711;29;20041;-94
2022/09/16 07:22:49;;;;;;;5.60;2.17;;;;;;;11.62;100.00;101099.81;4880655;29;20412;-92
2022/09/16 07:25:17;;;;;;;5.82;2.00;;;;;;;11.72;100.00;101109.09;4876469;29;20025;-92
2022/09/16 07:27:42;;;;;;;5.47;1.90;;;;;;;11.78;100.00;101113.31;4872668;29;20462;-92
2022/09/16 07:30:13;;;;;;;6.13;2.42;;;;;;;11.74;100.00;101101.28;4889877;29;20078;-92
2022/09/16 07:32:39;;;;;;;6.45;2.05;;;;;;;11.89;100.00;101111.28;4876650;29;20032;-92
2022/09/16 07:35:05;;;;;;;6.18;2.10;;;;;;;11.94;100.00;101112.03;4883196;29;20077;-92
2022/09/16 07:37:33;;;;;;;5.80;2.08;;;;;;;11.95;100.00;101099.91;4864465;29;20104;-92
2022/09/16 07:40:01;;;;;;;6.60;1.80;;;;;;;12.00;100.00;101119.69;4858022;29;20072;-93
2022/09/16 07:42:28;;;;;;;5.07;1.92;;;;;;;12.07;100.00;101118.66;4880779;29;20040;-93
2022/09/16 07:44:54;;;;;;;6.15;1.92;;;;;;;12.20;100.00;101101.00;4867107;29;20515;-92
2022/09/16 07:47:20;;;;;;;5.72;1.85;;;;;;;12.37;100.00;101103.97;4876398;29;20043;-93
2022/09/16 07:49:55;;;;;;;6.32;1.83;;;;;;;12.48;100.00;101094.16;4884968;29;20134;-94
2022/09/16 07:52:30;;;;;;;7.22;1.77;;;;;;;12.62;100.00;101102.41;4890240;29;20515;-94
2022/09/16 07:55:01;;;;;;;;;;;;;;;12.77;100.00;101118.47;4868324;29;20033;-94
2022/09/16 07:57:40;;;;;;;5.32;1.80;;;;;;;12.60;100.00;101093.81;4861558;29;19923;-93
2022/09/16 08:00:06;;;;;;;8.10;1.98;;;;;;;12.65;100.00;101117.94;4897230;29;20044;-93
2022/09/16 08:02:37;;;;;;;7.30;2.10;;;;;;;12.52;99.83;101097.53;4891312;29;20047;-93
2022/09/16 08:05:03;;;;;;;5.68;1.98;;;;;;;12.59;100.00;101112.91;4877840;29;20162;-94
2022/09/16 08:07:37;;;;;;;7.25;1.83;;;;;;;12.55;100.00;101106.09;4867048;29;20037;-93
2022/09/16 08:10:03;;;;;;;7.97;1.88;;;;;;;12.56;100.00;101104.31;4864130;29;20024;-92
2022/09/16 08:12:34;;;;;;;5.15;2.60;;;;;;;12.78;100.00;101122.78;4883690;29;20097;-94
2022/09/16 08:14:59;;;;;;;7.68;2.10;;;;;;;12.99;100.00;101117.84;4877332;29;20068;-93
2022/09/16 08:17:26;;;;;;;5.18;1.80;;;;;;;13.37;100.00;101121.09;4875561;29;20057;-92
2022/09/16 08:19:54;;;;;;;7.18;2.10;;;;;;;13.60;100.00;101107.31;4862269;29;20029;-92
2022/09/16 08:22:22;;;;;;;5.43;1.63;;;;;;;13.98;100.00;101124.34;4887923;29;20068;-93
2022/09/16 08:24:53;;;;;;;5.47;1.70;;;;;;;14.23;98.97;101115.63;4883943;29;20043;-93
2022/09/16 08:27:18;;;;;;;5.55;1.70;;;;;;;14.55;98.07;101117.13;4880288;29;20029;-92
2022/09/16 08:29:44;;;;;;;3.70;1.45;;;;;;;14.77;93.23;101129.41;4871647;29;20046;-93
2022/09/16 08:32:21;;;;;;;6.22;1.50;;;;;;;14.93;95.00;101134.03;4857425;29;20068;-93
2022/09/16 08:35:13;;;;;;;4.32;1.30;;;;;;;14.96;94.02;101131.28;4882693;29;20439;-93
2022/09/16 08:37:43;;;;;;;2.63;1.30;;;;;;;14.98;90.33;101126.00;4877096;29;20033;-92
2022/09/16 08:40:42;;;;;;;4.68;1.70;;;;;;;14.96;91.43;101131.28;4859240;29;20067;-93
2022/09/16 08:43:10;;;;;;;4.10;1.50;;;;;;;14.92;89.40;101153.19;4855704;29;20474;-93
2022/09/16 08:45:53;;;;;;;7.68;1.58;;;;;;;14.75;89.93;101131.22;4876819;29;20493;-92
2022/09/16 08:48:41;;;;;;;6.22;1.63;;;;;;;14.86;89.14;101144.75;4877899;29;20032;-91
2022/09/16 08:51:11;;;;;;;4.90;1.85;;;;;;;14.76;89.22;101125.94;4874632;29;20029;-93
2022/09/16 08:54:08;;;;;;;4.53;1.52;;;;;;;14.82;91.41;101130.94;4874525;29;20033;-93
2022/09/16 08:56:35;;;;;;;4.18;1.67;;;;;;;14.96;89.63;101141.72;4835443;29;20399;-92
2022/09/16 08:59:03;;;;;;;2.97;1.50;;;;;;;14.82;86.54;101115.28;4879637;29;20131;-93
2022/09/16 09:01:50;;;;;;;5.97;1.90;;;;;;;14.95;89.65;101136.56;4881510;29;20048;-94
2022/09/16 09:04:21;;;;;;;4.63;1.60;;;;;;;14.96;87.14;101127.81;4890215;29;20482;-95
2022/09/16 09:07:21;;;;;;;6.65;1.40;;;;;;;15.15;87.20;101128.00;4877379;29;20032;-94
2022/09/16 09:10:13;;;;;;;7.18;1.50;;;;;;;15.50;86.04;101143.16;4857775;29;20443;-90
2022/09/16 09:12:54;;;;;;;5.85;1.38;;;;;;;15.45;83.99;101132.03;4881639;29;20093;-90
2022/09/16 09:15:38;;;;;;;4.25;1.40;;;;;;;15.44;87.05;101125.09;4867202;29;20043;-89
2022/09/16 09:18:23;;;;;;;3.42;1.20;;;;;;;15.73;81.18;101147.50;4872940;29;20048;-90
2022/09/16 09:20:48;;;;;;;;;;;;;;;15.84;84.54;101145.28;4856863;29;20116;-89
2022/09/16 09:24:17;;;;;;;6.63;1.40;;;;;;;15.92;84.00;101131.91;4871128;29;20052;-90
2022/09/16 09:26:50;;;;;;;4.90;1.25;;;;;;;15.97;80.12;101148.25;4812761;29;22230;-90
2022/09/16 09:29:45;;;;;;;4.85;1.10;;;;;;;15.87;79.05;101139.09;4801421;29;20046;-90
2022/09/16 09:32:43;;;;;;;5.70;1.20;;;;;;;15.80;80.62;101141.97;4854580;29;20044;-90
2022/09/16 09:35:46;;;;;;;7.38;1.10;;;;;;;15.83;79.84;101137.53;4880664;29;20032;-89
2022/09/16 09:38:23;;;;;;;5.20;1.15;;;;;;;15.71;76.62;101188.53;4874405;29;20021;-89
2022/09/16 09:40:55;;;;;;;8.15;0.70;;;;;;;15.24;75.60;101200.75;4882462;29;20040;-90
2022/09/16 09:43:42;;;;;;;3.70;0.60;;;;;;;14.61;79.90;101200.41;4873018;29;20040;-91
2022/09/16 09:46:25;;;;;;;1.02;0.43;;;;;;;13.79;82.76;101192.66;4850564;29;20049;-91
2022/09/16 09:49:01;;;;;;;3.75;0.63;;;;;;;13.20;86.77;101194.47;4873525;29;20055;-91
2022/09/16 09:51:37;;;;;;;1.55;0.47;;;;;;;12.80;89.84;101191.25;4870995;29;20031;-90
2022/09/16 09:54:21;;;;;;;3.22;0.60;;;;;;;12.43;91.81;101192.22;4873453;29;20037;-89
2022/09/16 09:56:48;;;;;;;3.17;0.52;;;;;;;12.25;93.44;101200.47;4873472;29;20040;-90
2022/09/16 09:59:41;;;;;;;1.08;0.40;;;;;;;12.09;93.78;101188.75;4875162;29;20376;-90
2022/09/16 10:02:14;;;;;;;1.98;0.57;;;;;;;11.93;94.90;101185.69;4873990;29;20048;-90
2022/09/16 10:04:40;;;;;;;1.70;0.57;;;;;;;11.81;95.30;101186.81;4871865;29;20036;-91
2022/09/16 10:07:07;;;;;;;2.35;0.70;;;;;;;11.62;97.41;101159.53;4872962;29;20088;-91
2022/09/16 10:10:20;;;;;;;5.43;0.68;;;;;;;11.69;98.96;101163.69;4862180;29;20128;-93
2022/09/16 10:12:54;;;;;;;5.00;0.75;;;;;;;11.69;100.00;101155.91;4836730;29;20061;-93
2022/09/16 10:15:28;;;;;;;4.68;0.80;;;;;;;11.73;100.00;101167.94;4846736;29;20045;-93
2022/09/16 10:18:07;;;;;;;;;;;;;;;11.80;97.62;101169.50;4842596;29;20079;-93
2022/09/16 10:21:00;;;;;;;2.85;0.80;;;;;;;11.63;100.00;101157.78;4857140;29;19938;-94
2022/09/16 10:23:35;;;;;;;3.95;1.02;;;;;;;11.48;100.00;101143.41;4880627;29;20574;-92
2022/09/16 10:27:09;;;;;;;6.68;1.23;;;;;;;11.60;100.00;101176.88;4885857;29;20037;-92
2022/09/16 10:30:15;;;;;;;2.55;1.00;;;;;;;11.54;100.00;101168.38;4850280;29;20053;-92
2022/09/16 10:33:22;;;;;;;5.63;1.00;;;;;;;11.37;100.00;101148.00;4840055;29;20041;-92
2022/09/16 10:36:13;;;;;;;3.47;1.10;;;;;;;11.41;100.00;101153.06;4869360;29;20242;-92
2022/09/16 10:38:48;;;;;;;6.13;0.90;;;;;;;11.48;100.00;101148.59;4874196;29;20487;-91
2022/09/16 10:41:16;;;;;;;4.68;1.15;;;;;;;11.75;100.00;101165.31;4864192;29;20029;-92
2022/09/16 10:44:47;;;;;;;1.48;0.90;;;;;;;11.82;100.00;101136.56;4863904;29;21019;-91
2022/09/16 10:47:28;;;;;;;4.20;1.02;;;;;;;12.07;100.00;101131.66;4819256;29;20099;-92
2022/09/16 10:50:16;;;;;;;4.65;1.10;;;;;;;12.42;100.00;101161.91;4825661;29;20512;-92
2022/09/16 10:52:49;;;;;;;5.07;1.25;;;;;;;12.51;100.00;101153.88;4817867;29;20042;-93
2022/09/16 10:55:35;;;;;;;3.90;1.10;;;;;;;12.59;100.00;101138.91;4831323;29;20095;-93
2022/09/16 10:58:16;;;;;;;3.60;1.02;;;;;;;12.89;100.00;101160.63;4871118;29;20044;-92
2022/09/16 11:01:19;;;;;;;3.53;1.10;;;;;;;12.92;100.00;101144.94;4871410;29;20488;-92
2022/09/16 11:04:11;;;;;;;4.50;1.00;;;;;;;12.98;100.00;101129.13;4891195;29;20052;-93
2022/09/16 11:07:06;;;;;;;4.97;1.20;;;;;;;13.30;100.00;101149.06;4878396;29;20631;-92
2022/09/16 11:09:57;;;;;;;2.60;0.95;;;;;;;13.45;100.00;101151.19;4862097;29;20617;-93
2022/09/16 11:12:31;;;;;;;4.18;1.10;;;;;;;13.53;100.00;101152.69;4877388;29;20039;-92
2022/09/16 11:15:27;;;;;;;4.70;1.08;;;;;;;13.69;100.00;101151.31;4880557;29;20111;-93
2022/09/16 11:18:01;;;;;;;4.75;1.20;;;;;;;13.69;100.00;101127.88;4882419;29;20029;-91
2022/09/16 11:21:06;;;;;;;4.80;1.10;;;;;;;13.76;99.72;101153.69;4882271;29;20026;-92
2022/09/16 11:23:40;;;;;;;;;;;;;;;13.84;100.00;101149.09;4886636;29;20041;-92
2022/09/16 11:26:17;;;;;;;4.88;1.10;;;;;;;13.92;95.49;101137.56;4877707;29;20398;-91
2022/09/16 11:28:57;;;;;;;2.60;1.00;;;;;;;14.12;95.86;101154.25;4877012;29;20104;-92
2022/09/16 11:31:25;;;;;;;3.20;0.95;;;;;;;14.14;94.94;101152.44;4850716;29;20034;-92
2022/09/16 11:34:07;;;;;;;4.28;1.10;;;;;;;14.19;95.96;101160.94;4875842;29;20041;-92
2022/09/16 11:36:58;;;;;;;6.10;1.00;;;;;;;14.10;94.22;101163.88;4877229;29;20067;-93
2022/09/16 11:40:08;;;;;;;3.60;1.00;;;;;;;14.05;95.78;101164.94;4868752;29;20037;-93
2022/09/16 11:42:59;;;;;;;3.05;0.73;;;;;;;14.03;94.06;101170.19;4866880;29;20352;-92
2022/09/16 11:45:37;;;;;;;3.25;1.00;;;;;;;14.26;93.23;101169.44;4890490;29;20057;-93
2022/09/16 11:48:11;;;;;;;5.63;1.15;;;;;;;14.54;91.50;101204.13;4877666;29;20551;-92
2022/09/16 11:51:01;;;;;;;;;;;;;;;14.51;86.31;101226.88;4866473;29;20683;-93
2022/09/16 11:54:10;;;;;;;0.93;0.60;;;;;;;13.81;87.11;101236.91;4876994;29;19970;-92
2022/09/16 11:57:03;;;;;;;1.88;0.60;;;;;;;12.96;91.21;101244.59;4859370;29;20036;-92
2022/09/16 11:59:54;;;;;;;2.75;0.50;;;;;;;12.29;93.43;101243.69;4874109;29;20040;-93